SAOC/RCU METAR and TAF weather

Enter ICAO airport designator
Station Type Date Time Source
SAOC METAR 2019/10/14 05:00 UTC NOAA

SAOC 140500Z 09005KT 7000 -RA FEW040 OVC045 12/09 Q1026 RMK ESTIMATED WIND


Station Type Date Time Source
SAOC Decoded METAR 2019/10/14 05:00 UTC NOAA

Rio Cuarto Aerodrome, Argentina (SAOC) 33-07S 064-14W 421M
Oct 14, 2019 - 01:00 AM EDT / 2019.10.14 0500 UTC
Wind: from the E (090 degrees) at 6 MPH (5 KT):0
Visibility: 4 mile(s):0
Sky conditions: overcast
Weather: light rain
Temperature: 53 F (12 C)
Dew Point: 48 F (9 C)
Relative Humidity: 81%
Pressure (altimeter): 30.30 in. Hg (1026 hPa)
ob: SAOC 140500Z 09005KT 7000 -RA FEW040 OVC045 12/09 Q1026 RMK ESTIMATED WIND
cycle: 5

Station Type Date Time Source
SAOC TAF 2019/09/16 00:06 UTC NOAA

TAF SAOC 162300Z 1700/1724 18010KT CAVOK TX20/1718Z TN05/1710Z
TEMPO 1708/1712 14004KT 3000 BR SCT015
BECMG 1712/1714 25010KT CAVOK

Example: see airport list